• Join FlightAware (Why Join?)
  • Login
  • US Flag 
08:13AM EST


 

Airport Tracker/Info


-or-


 

Live Flight TrackerFlight Track Log ✈ UAL4419 ✈ 21-Apr-2013 ✈ KIAH - KLIT

Flight Track Log - Related Links

Times and Time Zones

All times are in EDT time to prevent confusion due to time zone crossing. See the UAL4419 flight status page for this flight to view local times or setup timezone preferences in your user account.

Time Position Orientation Groundspeed Altitude Reporting Facility
EDT Latitude Longitude Course Direction KTS MPH feet Rate Location/Type
07:58PM 29.9639 -95.3433 40° Northeast 159 183 600  Level Houston Center
08:00PM 30.0017 -95.3061 40° Northeast 198 228 3,400 2,100 Climbing Houston Center
08:01PM 30.0578 -95.2831 20° North 211 243 5,600 2,040 Climbing Houston Center
08:02PM 30.1414 -95.2506 19° North 277 319 7,600 2,100 Climbing Houston Center
08:03PM 30.2189 -95.2208 18° North 291 335 10,000 1,740 Climbing Houston Center
08:04PM 30.3006 -95.1889 19° North 308 354 11,200 1,080 Climbing Houston Center
08:05PM 30.3925 -95.1525 19° North 344 396 12,300 1,140 Climbing Houston Center
08:06PM 30.5019 -95.1097 19° North 368 423 13,600 1,080 Climbing Houston Center
08:07PM 30.6028 -95.0683 19° North 381 438 14,600 960 Climbing Houston Center
08:08PM 30.6989 -95.0064 29° Northeast 394 453 15,700 960 Climbing Houston Center
08:09PM 30.7953 -94.9464 28° Northeast 395 455 16,700 960 Climbing Houston Center
08:10PM 30.8933 -94.8861 28° Northeast 399 459 17,800 900 Climbing Houston Center
08:11PM 30.9472 -94.8533 28° Northeast 409 471 18,200 960 Climbing Fort Worth Center
08:12PM 31.0483 -94.7900 28° Northeast 414 476 19,300 1,080 Climbing Fort Worth Center
08:13PM 31.1575 -94.7214 28° Northeast 409 471 20,400 1,020 Climbing Fort Worth Center
08:14PM 31.2583 -94.6528 30° Northeast 409 471 21,400 1,020 Climbing Fort Worth Center
08:15PM 31.3569 -94.5842 31° Northeast 414 476 22,500 1,080 Climbing Fort Worth Center
08:16PM 31.4619 -94.5103 31° Northeast 420 483 23,600 1,080 Climbing Fort Worth Center
08:17PM 31.5644 -94.4414 30° Northeast 420 483 24,700 1,020 Climbing Fort Worth Center
08:18PM 31.6631 -94.3722 31° Northeast 415 478 25,700 900 Climbing Fort Worth Center
08:19PM 31.7533 -94.3083 31° Northeast 415 478 26,500 900 Climbing Fort Worth Center
08:20PM 31.8519 -94.2389 31° Northeast 415 478 27,600 1,020 Climbing Fort Worth Center
08:21PM 31.9503 -94.1694 31° Northeast 415 478 28,600 1,020 Climbing Fort Worth Center
08:22PM 32.0508 -94.0994 31° Northeast 415 478 29,700 1,020 Climbing Fort Worth Center
08:23PM 32.1514 -94.0297 30° Northeast 415 478 30,700 1,140 Climbing Fort Worth Center
08:24PM 32.2594 -93.9422 34° Northeast 415 478 32,000 1,140 Climbing Fort Worth Center
08:25PM 32.3600 -93.8769 29° Northeast 415 478 33,000 480 Climbing Fort Worth Center
08:26PM 32.4703 -93.7961 32° Northeast 427 491 33,000  Level Fort Worth Center
08:27PM 32.5789 -93.7203 30° Northeast 441 507 33,000  Level Fort Worth Center
08:28PM 32.6914 -93.6417 30° Northeast 447 514 33,000  Level Fort Worth Center
08:29PM 32.8017 -93.5606 32° Northeast 458 527 33,000  Level Fort Worth Center
08:30PM 32.9119 -93.4814 31° Northeast 458 527 33,000  Level Fort Worth Center
08:31PM 33.0242 -93.4022 31° Northeast 458 527 33,000  Level Fort Worth Center
08:32PM 33.1342 -93.3228 31° Northeast 458 527 33,000  Level Fort Worth Center
08:33PM 33.2464 -93.2431 31° Northeast 458 527 33,000 -600 Level Fort Worth Center
08:34PM 33.3564 -93.1633 31° Northeast 458 527 31,800 -1,860 Descending Fort Worth Center
08:35PM 33.4583 -93.0886 31° Northeast 469 540 29,300 -2,460 Descending Memphis Center
08:36PM 33.5644 -93.0122 31° Northeast 474 545 26,800 -2,520 Descending Memphis Center
08:37PM 33.6744 -92.9333 31° Northeast 468 539 24,300 -2,520 Descending Memphis Center
08:38PM 33.7764 -92.8586 31° Northeast 451 519 21,800 -2,520 Descending Memphis Center
08:39PM 33.8758 -92.7839 32° Northeast 434 499 19,300 -2,100 Descending Memphis Center
08:40PM 33.9775 -92.7117 30° Northeast 423 487 17,700 -1,500 Descending Memphis Center
08:41PM 34.0853 -92.6319 31° Northeast 418 481 16,300 -1,680 Descending Memphis Center
08:41PM 34.1022 -92.6197 31° Northeast 401 461 15,600 -1,800 Descending Memphis Center
08:42PM 34.1675 -92.5789 27° Northeast 399 459 14,500 -1,800 Descending Memphis Center
08:43PM 34.2583 -92.5258 26° Northeast 375 432 12,500 -2,100 Descending Memphis Center
08:44PM 34.3425 -92.4778 25° Northeast 347 399 10,400 -1,740 Descending Memphis Center
08:45PM 34.4164 -92.4392 23° Northeast 315 362 9,100 -1,920 Descending Memphis Center
08:46PM 34.4836 -92.4056 22° Northeast 276 318 6,600 -2,520 Descending Memphis Center
08:47PM 34.5486 -92.3794 18° North 252 290 4,100 -2,100 Descending Memphis Center
08:48PM 34.6097 -92.3531 20° North 241 277 2,500 -1,680 Descending Memphis Center
08:48PM 34.6244 -92.3408 34° Northeast 221 254 2,000 -720 Descending Memphis Center
08:49PM 34.6689 -92.3064 33° Northeast 176 203 1,600 -420 Descending Memphis Center
08:50PM 34.6922 -92.2844 38° Northeast 179 206 1,300 -600 Descending Memphis Center
08:50PM 34.6964 -92.2744 63° Northeast 116 133 1,000 -300 Descending Memphis Center
08:51PM 34.7344 -92.2500 28° Northeast 162 186 1,000  Level Memphis Center